KFRH/FRH METAR and TAF weather

Enter ICAO airport designator
Station Type Date Time Source
KFRH METAR 2020/11/27 02:55 UTC NOAA

KFRH 270255Z AUTO 16003KT 10SM OVC017 08/07 A3010 RMK AO1


Station Type Date Time Source
KFRH Decoded METAR 2020/11/27 02:55 UTC NOAA

Station name not available
Nov 26, 2020 - 09:55 PM EST / 2020.11.27 0255 UTC
Wind: from the SSE (160 degrees) at 3 MPH (3 KT):0
Visibility: 10 mile(s):0
Sky conditions: overcast
Temperature: 46 F (8 C)
Dew Point: 44 F (7 C)
Relative Humidity: 93%
Pressure (altimeter): 30.1 in. Hg (1019 hPa)
ob: KFRH 270255Z AUTO 16003KT 10SM OVC017 08/07 A3010 RMK AO1
cycle: 3

Station Type Date Time Source
KFRH TAF UTC NOAA

Error!

Example: see airport list